Nearby METAR Reports


KEDC - Austin Exec, Texas, USA
Distance from station: SW 16mi, 25km
Updated: Sun, 23-Sep-2018 3:35am CDT
Overcast
Overcast
 Wind from calm
Wind: Calm
Temperature: 66°F , 19°C
Dew Point: 66°F , 19°C
Humidity: 100%
Barometer: 29.92 inHg , 1013.2 hPa
Clouds: Overcast
Visibility: 10 miles , 16 km
Cloud details: Overcast 2800 ft
2018/09/23 08:35 KEDC 230835Z AUTO 00000KT 10SM OVC028 19/19 A2992 RMK AO2
KGTU - Georgetown, Texas, USA
Distance from station: WNW 17mi, 28km
Updated: Sun, 23-Sep-2018 3:49am CDT
Partly Cloudy
Partly Cloudy
 Wind from calm
Wind: Calm
Temperature: 66°F , 19°C
Dew Point: 64°F , 18°C
Humidity: 94%
Barometer: 29.93 inHg , 1013.5 hPa
Clouds: Partly Cloudy
Visibility: 10 miles , 16 km
Cloud details: Partly Cloudy 1500 ft
2018/09/23 08:49 KGTU 230849Z AUTO 00000KT 10SM SCT015 19/18 A2993 RMK AO2
 
KATT - Austin/Mabry, Texas, USA
Distance from station: SW 28mi, 45km
Updated: Sun, 23-Sep-2018 3:51am CDT
Partly Cloudy
Partly Cloudy
 Wind from calm
Wind: Calm
Temperature: 68°F , 20°C
Dew Point: 63°F , 17°C
Humidity: 83%
Barometer: 29.92 inHg , 1013.2 hPa
Clouds: Partly Cloudy
Visibility: 10 miles , 16 km
Cloud details: Partly Cloudy 1800 ft
2018/09/23 08:51 KATT 230851Z AUTO 00000KT 10SM SCT018 20/17 A2992 RMK AO2 SLP124 T02000172 56008 $
KAUS - Austin, Texas, USA
Distance from station: SSW 32mi, 51km
Updated: Sun, 23-Sep-2018 2:53am CDT
Few Clouds
Few Clouds
 Wind from calm
Wind: Calm
Temperature: 68°F , 20°C
Dew Point: 64°F , 18°C
Humidity: 88%
Barometer: 29.92 inHg , 1013.2 hPa
Clouds: Few Clouds
Visibility: 10 miles , 16 km
Cloud details: Few Clouds 3300 ft
2018/09/23 07:53 KAUS 230753Z 00000KT 10SM FEW033 20/18 A2992 RMK AO2 SLP125 T02000178 $
 
KRYW - Lago Vista, Texas, USA
Distance from station: W 33mi, 54km
Updated: Sun, 23-Sep-2018 3:35am CDT
Overcast
Overcast
 Wind from W
Wind: W 3 mph , 6 km/h
Temperature: 68°F , 20°C
Dew Point: 68°F , 20°C
Humidity: 100%
Barometer: 29.94 inHg , 1013.9 hPa
Clouds: Overcast
Visibility: 10 miles , 16 km
Cloud details: Overcast 1000 ft
2018/09/23 08:35 KRYW 230835Z AUTO 28003KT 10SM OVC010 20/20 A2994 RMK AO2 T01950195
KILE - Killeen Muni, Texas, USA
Distance from station: NNW 37mi, 59km
Updated: Sun, 23-Sep-2018 3:46am CDT
Overcast
Overcast
 Wind from NW
Wind: NW 6 mph , 9 km/h
Barometer: 29.92 inHg , 1013.2 hPa
Clouds: Overcast
Visibility: 6 miles , 10 km
Cloud details: Few Clouds 800 ft
Overcast 1500 ft
2018/09/23 08:46 KILE 230846Z AUTO 32005KT 6SM UP FEW008 OVC015 A2992 RMK AO2 RAB31E40UPB40 P0000 FZRANO $
 
KTPL - Temple/Miller, Texas, USA
Distance from station: N 38mi, 61km
Updated: Sun, 23-Sep-2018 3:51am CDT
Overcast
Overcast
 Wind from WNW
Wind: WNW 3 mph , 6 km/h
Temperature: 68°F , 20°C
Dew Point: 66°F , 19°C
Humidity: 94%
Barometer: 29.92 inHg , 1013.2 hPa
Clouds: Overcast
Cloud details: Mostly Cloudy 1400 ft
Overcast 2000 ft
2018/09/23 08:51 KTPL 230851Z AUTO 29003KT BKN014 OVC020 20/19 A2992 RMK AO2 SLP137 T02000194 56008 PWINO RVRNO $
KGYB - Giddings-Lee, Texas, USA
Distance from station: SE 39mi, 62km
Updated: Sun, 23-Sep-2018 3:35am CDT
Clear
Clear
 Wind from calm
Wind: Calm
Temperature: 68°F , 20°C
Dew Point: 63°F , 17°C
Humidity: 83%
Barometer: 29.92 inHg , 1013.2 hPa
Clouds: Clear
Visibility: 10 miles , 16 km
2018/09/23 08:35 KGYB 230835Z AUTO 00000KT 10SM CLR 20/17 A2992 RMK AO2 T01950171
 
KGRK - Gray/Ft Hood, Texas, USA
Distance from station: NW 42mi, 67km
Updated: Sun, 23-Sep-2018 3:43am CDT
Overcast
Overcast
 Wind from NNW
Wind: NNW 6 mph , 9 km/h
Temperature: 66°F , 19°C
Dew Point: 64°F , 18°C
Humidity: 94%
Barometer: 29.91 inHg , 1012.9 hPa
Clouds: Overcast
Visibility: 10 miles , 16 km
Cloud details: Mostly Cloudy 1000 ft
Overcast 1500 ft
2018/09/23 08:43 KGRK 230843Z AUTO 34005KT 10SM BKN010 OVC015 19/18 A2991 RMK AO2 SLP122
KHLR - Ft Hood/Killeen, Texas, USA
Distance from station: NNW 42mi, 67km
Updated: Sun, 23-Sep-2018 3:32am CDT
Mist, Overcast
Mist, Overcast
 Wind from NNW
Wind: NNW 8 mph , 13 km/h
Temperature: 66°F , 19°C
Dew Point: 64°F , 18°C
Humidity: 94%
Barometer: 29.88 inHg , 1011.9 hPa
Summary: Mist
Clouds: Overcast
Visibility: 6 miles , 10 km
Cloud details: Mostly Cloudy 700 ft
Overcast 1400 ft
2018/09/23 08:32 KHLR 230832Z AUTO 34007KT 6SM BR BKN007 OVC014 19/18 A2988 RMK AO2 SLP110
 
KRWV - Caldwell, Texas, USA
Distance from station: E 43mi, 69km
Updated: Sun, 23-Sep-2018 3:35am CDT
Overcast
Overcast
 Wind from W
Wind: W 5 mph , 7 km/h
Temperature: 70°F , 21°C
Dew Point: 66°F , 19°C
Humidity: 88%
Barometer: 29.91 inHg , 1012.9 hPa
Clouds: Overcast
Visibility: 10 miles , 16 km
Cloud details: Mostly Cloudy 4400 ft
Overcast 5000 ft
2018/09/23 08:35 KRWV 230835Z AUTO 27004KT 10SM BKN044 OVC050 21/19 A2991 RMK AO2 T02090187
KBMQ - Burnet, Texas, USA
Distance from station: WNW 50mi, 80km
Updated: Sun, 23-Sep-2018 3:48am CDT
Overcast
Overcast
 Wind from NW
Wind: NW 5 mph , 7 km/h
Temperature: 66°F , 19°C
Dew Point: 64°F , 18°C
Humidity: 94%
Barometer: 29.95 inHg , 1014.2 hPa
Clouds: Overcast
Visibility: 10 miles , 16 km
Cloud details: Partly Cloudy 800 ft
Partly Cloudy 1400 ft
Overcast 3600 ft
2018/09/23 08:48 KBMQ 230848Z AUTO 32004KT 10SM SCT008 SCT014 OVC036 19/18 A2995 RMK AO2 SLP130 T01940178 57010